createdAt,value
2018-05-25T00:01:55.366Z,11.70
2018-05-25T00:04:22.377Z,11.70
2018-05-25T00:06:49.350Z,11.70
2018-05-25T00:09:15.636Z,11.70
2018-05-25T00:11:41.907Z,11.70
2018-05-25T00:14:08.190Z,11.60
2018-05-25T00:16:35.225Z,11.60
2018-05-25T00:19:01.511Z,11.60
2018-05-25T00:21:27.743Z,11.60
2018-05-25T00:23:54.001Z,11.50
2018-05-25T00:26:21.011Z,11.50
2018-05-25T00:28:47.258Z,11.50
2018-05-25T00:31:13.480Z,11.50
2018-05-25T00:33:39.746Z,11.50
2018-05-25T00:36:06.362Z,11.50
2018-05-25T00:38:32.665Z,11.40
2018-05-25T00:40:59.615Z,11.40
2018-05-25T00:43:25.912Z,11.40
2018-05-25T00:45:52.135Z,11.30
2018-05-25T00:48:18.372Z,11.30
2018-05-25T00:50:44.650Z,11.20
2018-05-25T00:53:11.272Z,11.20
2018-05-25T00:55:38.356Z,11.20
2018-05-25T00:58:04.641Z,11.20
2018-05-25T01:00:30.851Z,11.20
2018-05-25T01:02:57.820Z,11.10
2018-05-25T01:07:45.871Z,11.00
2018-05-25T01:10:12.863Z,10.90
2018-05-25T01:12:39.136Z,11.00
2018-05-25T01:15:05.421Z,10.90
2018-05-25T01:17:31.708Z,10.90
2018-05-25T01:19:57.930Z,10.90
2018-05-25T01:22:24.575Z,10.90
2018-05-25T01:24:51.199Z,10.80
2018-05-25T01:27:18.202Z,10.80
2018-05-25T01:29:44.476Z,10.80
2018-05-25T01:32:10.728Z,10.80
2018-05-25T01:34:37.347Z,10.80
2018-05-25T01:37:03.597Z,10.70
2018-05-25T01:39:29.808Z,10.70
2018-05-25T01:41:56.813Z,10.70
2018-05-25T01:44:23.073Z,10.70
2018-05-25T01:46:49.347Z,10.60
2018-05-25T01:49:15.573Z,10.60
2018-05-25T01:51:41.892Z,10.70
2018-05-25T01:54:08.872Z,10.70
2018-05-25T01:56:35.151Z,10.70
2018-05-25T01:59:02.173Z,10.70
2018-05-25T02:01:28.456Z,10.70
2018-05-25T02:03:54.668Z,10.60
2018-05-25T02:06:20.917Z,10.40
2018-05-25T02:08:47.178Z,10.50
2018-05-25T02:11:13.823Z,10.50
2018-05-25T02:13:40.050Z,10.50
2018-05-25T02:16:06.340Z,10.40
2018-05-25T02:18:33.350Z,10.40
2018-05-25T02:21:00.318Z,10.30
2018-05-25T02:23:26.571Z,10.30
2018-05-25T02:25:52.756Z,10.20
2018-05-25T02:28:19.072Z,10.20
2018-05-25T02:30:45.317Z,10.10
2018-05-25T02:33:11.573Z,10.10
2018-05-25T02:35:38.542Z,10.00
2018-05-25T02:38:05.588Z,9.90
2018-05-25T02:40:32.194Z,9.90
2018-05-25T02:42:58.451Z,9.80
2018-05-25T02:45:24.677Z,9.80
2018-05-25T02:47:50.919Z,9.80
2018-05-25T02:50:17.537Z,9.80
2018-05-25T02:52:44.546Z,9.80
2018-05-25T02:55:10.807Z,9.80
2018-05-25T02:57:37.072Z,9.80
2018-05-25T03:00:03.366Z,9.80
2018-05-25T03:02:29.658Z,9.80
2018-05-25T03:04:55.928Z,9.80
2018-05-25T03:07:22.159Z,9.90
2018-05-25T03:09:49.222Z,9.80
2018-05-25T03:12:15.510Z,9.80
2018-05-25T03:14:41.772Z,9.80
2018-05-25T03:17:08.471Z,9.80
2018-05-25T03:19:34.702Z,9.70
2018-05-25T03:22:00.993Z,9.60
2018-05-25T03:24:28.002Z,9.60
2018-05-25T03:26:54.238Z,9.60
2018-05-25T03:29:20.492Z,9.70
2018-05-25T03:31:46.783Z,9.70
2018-05-25T03:34:13.487Z,9.80
2018-05-25T03:36:40.465Z,9.70
2018-05-25T03:39:07.126Z,9.70
2018-05-25T03:41:33.723Z,9.60
2018-05-25T03:44:00.000Z,9.60
2018-05-25T03:46:26.286Z,9.60
2018-05-25T03:48:52.531Z,9.60
2018-05-25T03:51:18.829Z,9.70
2018-05-25T03:53:45.069Z,9.60
2018-05-25T03:56:12.073Z,9.60
2018-05-25T03:58:51.051Z,9.60
2018-05-25T04:01:29.356Z,9.60
2018-05-25T04:03:55.592Z,9.60
2018-05-25T04:06:21.813Z,9.70
2018-05-25T04:08:48.115Z,9.60
2018-05-25T04:11:14.795Z,9.50
2018-05-25T04:13:41.088Z,9.40
2018-05-25T04:16:07.388Z,9.40
2018-05-25T04:18:33.627Z,9.40
2018-05-25T04:20:59.918Z,9.40
2018-05-25T04:23:26.122Z,9.40
2018-05-25T04:25:52.790Z,9.30
2018-05-25T04:28:19.827Z,9.30
2018-05-25T04:30:46.125Z,9.30
2018-05-25T04:33:12.432Z,9.40
2018-05-25T04:35:39.104Z,9.40
2018-05-25T04:38:05.323Z,9.30
2018-05-25T04:40:31.973Z,9.50
2018-05-25T04:42:58.677Z,9.50
2018-05-25T04:45:25.710Z,9.60
2018-05-25T04:47:51.969Z,9.60
2018-05-25T04:50:18.990Z,9.70
2018-05-25T04:52:45.240Z,9.70
2018-05-25T04:55:11.510Z,9.80
2018-05-25T04:57:38.544Z,9.90
2018-05-25T05:00:04.844Z,10.00
2018-05-25T05:02:31.075Z,10.00
2018-05-25T05:04:57.761Z,10.10
2018-05-25T05:07:24.019Z,10.20
2018-05-25T05:09:50.298Z,10.40
2018-05-25T05:12:16.563Z,10.40
2018-05-25T05:14:43.240Z,10.40
2018-05-25T05:17:10.278Z,10.60
2018-05-25T05:19:37.348Z,10.70
2018-05-25T05:22:03.625Z,10.80
2018-05-25T05:24:29.854Z,11.00
2018-05-25T05:26:56.844Z,11.10
2018-05-25T05:29:23.094Z,11.10
2018-05-25T05:31:50.097Z,11.20
2018-05-25T05:34:16.345Z,11.20
2018-05-25T05:36:43.359Z,11.30
2018-05-25T05:39:09.613Z,11.40
2018-05-25T05:41:35.975Z,11.50
2018-05-25T05:44:02.298Z,11.60
2018-05-25T05:46:28.581Z,11.70
2018-05-25T05:48:55.574Z,11.70
2018-05-25T05:51:21.893Z,11.90
2018-05-25T05:53:48.120Z,12.00
2018-05-25T05:56:14.382Z,12.10
2018-05-25T05:58:40.663Z,12.20
2018-05-25T06:01:06.914Z,12.40
2018-05-25T06:03:33.864Z,12.60
2018-05-25T06:06:00.900Z,12.80
2018-05-25T06:08:27.111Z,13.00
2018-05-25T06:10:53.485Z,13.10
2018-05-25T06:13:20.513Z,13.30
2018-05-25T06:15:47.174Z,13.40
2018-05-25T06:18:14.041Z,13.50
2018-05-25T06:20:40.350Z,13.60
2018-05-25T06:23:06.641Z,13.80
2018-05-25T06:25:32.883Z,14.00
2018-05-25T06:27:59.165Z,14.20
2018-05-25T06:30:25.414Z,14.40
2018-05-25T06:32:52.424Z,14.50
2018-05-25T06:35:18.700Z,14.70
2018-05-25T06:37:44.898Z,14.80
2018-05-25T06:40:11.180Z,14.90
2018-05-25T06:42:38.145Z,15.00
2018-05-25T06:45:04.808Z,15.20
2018-05-25T06:47:31.103Z,15.30
2018-05-25T06:49:58.173Z,15.30
2018-05-25T06:52:25.219Z,15.40
2018-05-25T06:54:51.814Z,15.50
2018-05-25T06:57:18.107Z,15.50
2018-05-25T06:59:55.002Z,15.60
2018-05-25T07:02:21.284Z,15.70
2018-05-25T07:04:47.610Z,15.80
2018-05-25T07:07:13.875Z,15.90
2018-05-25T07:09:40.115Z,16.10
2018-05-25T07:12:06.387Z,16.20
2018-05-25T07:14:33.052Z,16.50
2018-05-25T07:16:59.339Z,16.60
2018-05-25T07:19:26.366Z,16.70
2018-05-25T07:21:52.967Z,16.90
2018-05-25T07:24:19.215Z,17.10
2018-05-25T07:26:45.466Z,17.30
2018-05-25T07:29:12.491Z,17.50
2018-05-25T07:31:38.718Z,17.70
2018-05-25T07:34:04.990Z,17.80
2018-05-25T07:36:31.270Z,17.70
2018-05-25T07:38:58.245Z,17.70
2018-05-25T07:41:24.526Z,17.70
2018-05-25T07:43:50.749Z,17.80
2018-05-25T07:46:17.105Z,17.90
2018-05-25T07:48:44.106Z,17.90
2018-05-25T07:51:10.406Z,17.90
2018-05-25T07:53:36.642Z,17.90
2018-05-25T07:56:04.371Z,17.80
2018-05-25T07:58:30.615Z,17.80
2018-05-25T08:00:56.874Z,17.80
2018-05-25T08:03:23.116Z,17.80
2018-05-25T08:05:49.394Z,17.80
2018-05-25T08:08:15.611Z,17.90
2018-05-25T08:10:42.749Z,17.90
2018-05-25T08:13:09.014Z,18.00
2018-05-25T08:15:35.285Z,18.20
2018-05-25T08:18:01.576Z,18.30
2018-05-25T08:20:28.181Z,18.30
2018-05-25T08:22:55.167Z,18.30
2018-05-25T08:25:22.161Z,18.40
2018-05-25T08:27:48.396Z,18.40
2018-05-25T08:30:14.676Z,18.50
2018-05-25T08:32:41.656Z,18.50
2018-05-25T08:35:08.616Z,18.60
2018-05-25T08:37:34.879Z,18.70
2018-05-25T08:40:01.119Z,18.80
2018-05-25T08:42:27.760Z,18.90
2018-05-25T08:44:53.990Z,18.90
2018-05-25T08:47:20.252Z,18.90
2018-05-25T08:49:46.860Z,18.90
2018-05-25T08:52:13.100Z,18.90
2018-05-25T08:54:39.331Z,18.90
2018-05-25T08:57:05.611Z,18.90
2018-05-25T08:59:31.926Z,19.10
2018-05-25T09:01:58.172Z,19.10
2018-05-25T09:04:24.476Z,19.10
2018-05-25T09:06:50.738Z,19.20
2018-05-25T09:09:17.010Z,19.20
2018-05-25T09:11:43.865Z,19.40
2018-05-25T09:14:10.153Z,19.60
2018-05-25T09:16:36.406Z,19.60
2018-05-25T09:19:02.685Z,19.60
2018-05-25T09:21:28.906Z,19.60
2018-05-25T09:23:55.886Z,19.70
2018-05-25T09:26:22.900Z,19.70
2018-05-25T09:28:49.144Z,19.90
2018-05-25T09:31:16.175Z,20.10
2018-05-25T09:33:42.416Z,20.30
2018-05-25T09:36:08.701Z,20.40
2018-05-25T09:38:34.925Z,20.50
2018-05-25T09:41:01.184Z,20.60
2018-05-25T09:43:28.618Z,20.60
2018-05-25T09:45:55.296Z,20.40
2018-05-25T09:48:21.528Z,20.20
2018-05-25T09:50:47.760Z,20.10
2018-05-25T09:53:14.031Z,20.10
2018-05-25T09:55:40.657Z,20.20
2018-05-25T09:58:06.892Z,20.20
2018-05-25T10:00:33.142Z,20.30
2018-05-25T10:03:00.151Z,20.40
2018-05-25T10:05:26.476Z,20.50
2018-05-25T10:07:53.101Z,20.70
2018-05-25T10:10:20.121Z,21.00
2018-05-25T10:12:46.402Z,21.00
2018-05-25T10:15:13.445Z,21.60
2018-05-25T10:17:39.699Z,22.10
2018-05-25T10:20:06.691Z,22.30
2018-05-25T10:22:32.946Z,22.20
2018-05-25T10:24:59.936Z,22.40
2018-05-25T10:27:26.926Z,22.30
2018-05-25T10:29:53.212Z,22.30
2018-05-25T10:32:20.229Z,22.40
2018-05-25T10:34:47.262Z,23.00
2018-05-25T10:37:13.514Z,22.60
2018-05-25T10:39:39.746Z,23.00
2018-05-25T10:42:06.056Z,23.00
2018-05-25T10:44:32.284Z,22.60
2018-05-25T10:46:58.534Z,22.60
2018-05-25T10:49:24.855Z,21.90
2018-05-25T10:51:51.097Z,21.80
2018-05-25T10:54:18.090Z,22.00
2018-05-25T10:56:44.335Z,22.20
2018-05-25T10:59:10.590Z,21.90
2018-05-25T11:01:36.833Z,21.40
2018-05-25T11:04:03.882Z,21.20
2018-05-25T11:06:30.904Z,21.50
2018-05-25T11:08:57.137Z,21.30
2018-05-25T11:11:23.405Z,21.20
2018-05-25T11:13:49.636Z,21.20
2018-05-25T11:16:15.890Z,21.50
2018-05-25T11:18:42.499Z,22.30
2018-05-25T11:21:08.839Z,22.90
2018-05-25T11:23:35.082Z,23.20
2018-05-25T11:26:01.371Z,23.30
2018-05-25T11:28:27.651Z,23.20
2018-05-25T11:30:53.964Z,23.80
2018-05-25T11:33:20.277Z,23.20
2018-05-25T11:35:46.524Z,23.10
2018-05-25T11:38:12.757Z,23.00
2018-05-25T11:40:39.015Z,22.90
2018-05-25T11:43:05.263Z,23.00
2018-05-25T11:45:31.876Z,22.90
2018-05-25T11:47:58.166Z,23.00
2018-05-25T11:50:25.272Z,23.10
2018-05-25T11:52:51.602Z,23.30
2018-05-25T11:55:17.890Z,23.50
2018-05-25T11:57:44.201Z,23.60
2018-05-25T12:00:10.833Z,23.30
2018-05-25T12:02:37.097Z,23.40
2018-05-25T12:05:03.389Z,23.50
2018-05-25T12:07:29.682Z,23.70
2018-05-25T12:09:56.698Z,24.00
2018-05-25T12:12:23.005Z,24.10
2018-05-25T12:14:49.262Z,24.20
2018-05-25T12:17:15.517Z,23.80
2018-05-25T12:19:41.810Z,23.30
2018-05-25T12:22:08.097Z,22.80
2018-05-25T12:24:34.366Z,22.40
2018-05-25T12:27:01.382Z,22.00
2018-05-25T12:29:28.367Z,21.80
2018-05-25T12:31:55.052Z,21.50
2018-05-25T12:34:21.278Z,21.50
2018-05-25T12:36:47.631Z,21.80
2018-05-25T12:39:13.868Z,22.00
2018-05-25T12:41:40.156Z,22.00
2018-05-25T12:46:27.157Z,21.90
2018-05-25T12:48:53.426Z,21.80
2018-05-25T12:51:19.652Z,21.60
2018-05-25T12:53:45.946Z,21.40
2018-05-25T12:56:12.220Z,21.10
2018-05-25T12:58:38.874Z,21.10
2018-05-25T13:01:05.170Z,21.80
2018-05-25T13:03:31.421Z,22.40
2018-05-25T13:05:57.663Z,22.30
2018-05-25T13:08:23.932Z,22.30
2018-05-25T13:10:50.941Z,22.40
2018-05-25T13:13:17.213Z,22.00
2018-05-25T13:15:43.527Z,21.60
2018-05-25T13:18:09.768Z,21.40
2018-05-25T13:20:36.080Z,21.30
2018-05-25T13:23:02.350Z,21.40
2018-05-25T13:25:28.637Z,21.30
2018-05-25T13:27:54.910Z,21.60
2018-05-25T13:30:21.203Z,22.20
2018-05-25T13:32:47.443Z,23.10
2018-05-25T13:35:14.123Z,24.00
2018-05-25T13:37:40.368Z,25.10
2018-05-25T13:40:06.613Z,25.90
2018-05-25T13:42:32.878Z,26.40
2018-05-25T13:44:59.863Z,27.00
2018-05-25T13:47:26.148Z,27.30
2018-05-25T13:49:52.395Z,27.20
2018-05-25T13:52:19.376Z,28.10
2018-05-25T13:54:45.611Z,29.00
2018-05-25T13:57:11.906Z,29.50
2018-05-25T13:59:38.876Z,29.40
2018-05-25T14:02:05.938Z,28.80
2018-05-25T14:04:32.167Z,28.80
2018-05-25T14:06:59.164Z,28.70
2018-05-25T14:09:25.398Z,29.30
2018-05-25T14:11:51.823Z,29.10
2018-05-25T14:14:18.023Z,29.10
2018-05-25T14:16:45.032Z,29.20
2018-05-25T14:19:11.302Z,29.50
2018-05-25T14:21:38.273Z,30.40
2018-05-25T14:24:05.436Z,30.10
2018-05-25T14:26:31.673Z,28.70
2018-05-25T14:28:57.952Z,27.30
2018-05-25T14:31:24.228Z,26.00
2018-05-25T14:33:51.409Z,25.90
2018-05-25T14:36:17.678Z,26.20
2018-05-25T14:38:43.991Z,26.60
2018-05-25T14:41:10.256Z,27.00
2018-05-25T14:43:37.287Z,27.40
2018-05-25T14:46:03.543Z,27.50
2018-05-25T14:48:29.813Z,27.60
2018-05-25T14:50:56.833Z,27.90
2018-05-25T14:53:23.103Z,28.20
2018-05-25T14:55:50.113Z,28.40
2018-05-25T14:58:16.389Z,28.40
2018-05-25T15:00:43.419Z,29.10
2018-05-25T15:03:09.638Z,28.90
2018-05-25T15:05:36.803Z,28.60
2018-05-25T15:08:03.043Z,28.60
2018-05-25T15:10:29.308Z,28.10
2018-05-25T15:12:56.293Z,27.70
2018-05-25T15:15:22.577Z,27.70
2018-05-25T15:17:48.843Z,26.00
2018-05-25T15:20:15.838Z,25.00
2018-05-25T15:22:42.272Z,25.00
2018-05-25T15:25:08.582Z,24.40
2018-05-25T15:27:34.828Z,24.20
2018-05-25T15:30:01.053Z,24.20
2018-05-25T15:32:27.309Z,24.70
2018-05-25T15:34:53.528Z,25.40
2018-05-25T15:37:19.760Z,25.90
2018-05-25T15:39:45.989Z,26.20
2018-05-25T15:42:13.030Z,26.90
2018-05-25T15:44:40.026Z,27.40
2018-05-25T15:47:06.284Z,27.30
2018-05-25T15:49:32.508Z,26.90
2018-05-25T15:51:58.745Z,26.30
2018-05-25T15:54:25.012Z,25.90
2018-05-25T15:56:51.243Z,25.60
2018-05-25T15:59:17.519Z,25.40
2018-05-25T16:01:43.802Z,25.30
2018-05-25T16:04:10.753Z,25.10
2018-05-25T16:06:37.059Z,25.00
2018-05-25T16:09:03.437Z,25.10
2018-05-25T16:11:29.683Z,25.00
2018-05-25T16:13:57.387Z,24.70
2018-05-25T16:16:23.653Z,24.70
2018-05-25T16:18:49.927Z,24.90
2018-05-25T16:21:16.198Z,24.60
2018-05-25T16:23:42.507Z,24.20
2018-05-25T16:26:09.494Z,24.20
2018-05-25T16:28:35.769Z,24.10
2018-05-25T16:31:02.108Z,24.00
2018-05-25T16:33:28.369Z,23.80
2018-05-25T16:35:55.363Z,23.50
2018-05-25T16:38:21.648Z,23.40
2018-05-25T16:40:48.268Z,22.90
2018-05-25T16:43:14.554Z,22.80
2018-05-25T16:45:41.558Z,22.70
2018-05-25T16:48:07.838Z,22.60
2018-05-25T16:50:34.868Z,22.60
2018-05-25T16:53:01.122Z,22.60
2018-05-25T16:55:28.170Z,22.60
2018-05-25T16:57:55.145Z,22.60
2018-05-25T17:00:21.364Z,22.60
2018-05-25T17:02:48.339Z,22.50
2018-05-25T17:05:14.559Z,22.50
2018-05-25T17:07:41.557Z,22.40
2018-05-25T17:10:07.789Z,22.40
2018-05-25T17:12:34.152Z,22.20
2018-05-25T17:15:00.349Z,22.00
2018-05-25T17:17:26.647Z,21.70
2018-05-25T17:19:53.717Z,21.40
2018-05-25T17:22:19.980Z,21.10
2018-05-25T17:24:46.999Z,20.90
2018-05-25T17:27:14.028Z,20.80
2018-05-25T17:29:40.320Z,20.90
2018-05-25T17:32:07.347Z,20.90
2018-05-25T17:34:33.544Z,21.10
2018-05-25T17:36:59.817Z,21.00
2018-05-25T17:39:26.787Z,21.10
2018-05-25T17:41:53.078Z,21.00
2018-05-25T17:44:19.313Z,20.90
2018-05-25T17:46:45.603Z,20.90
2018-05-25T17:49:11.880Z,20.90
2018-05-25T17:51:38.577Z,20.70
2018-05-25T17:54:04.824Z,20.60
2018-05-25T17:56:31.067Z,20.40
2018-05-25T17:58:57.343Z,20.20
2018-05-25T18:01:25.091Z,20.00
2018-05-25T18:03:51.349Z,19.90
2018-05-25T18:06:17.643Z,19.80
2018-05-25T18:08:43.954Z,19.70
2018-05-25T18:11:10.202Z,19.50
2018-05-25T18:13:36.848Z,20.10
2018-05-25T18:16:03.104Z,19.30
2018-05-25T18:18:30.120Z,19.20
2018-05-25T18:20:56.356Z,19.10
2018-05-25T18:23:22.651Z,19.00
2018-05-25T18:25:48.884Z,19.00
2018-05-25T18:28:16.624Z,18.90
2018-05-25T18:30:42.869Z,18.80
2018-05-25T18:33:09.154Z,18.80
2018-05-25T18:35:36.130Z,18.70
2018-05-25T18:38:02.440Z,18.60
2018-05-25T18:40:29.442Z,18.60
2018-05-25T18:42:56.039Z,18.50
2018-05-25T18:45:23.064Z,18.40
2018-05-25T18:47:49.328Z,18.40
2018-05-25T18:50:16.400Z,18.20
2018-05-25T18:52:42.670Z,18.10
2018-05-25T18:55:08.944Z,18.00
2018-05-25T18:57:35.185Z,17.90
2018-05-25T19:00:01.874Z,17.80
2018-05-25T19:02:28.141Z,17.70
2018-05-25T19:04:54.442Z,17.60
2018-05-25T19:07:20.709Z,17.40
2018-05-25T19:09:47.018Z,17.30
2018-05-25T19:12:13.328Z,17.30
2018-05-25T19:14:39.602Z,17.10
2018-05-25T19:17:05.865Z,17.10
2018-05-25T19:19:32.153Z,17.00
2018-05-25T19:21:58.485Z,16.90
2018-05-25T19:24:24.775Z,16.80
2018-05-25T19:26:51.023Z,16.70
2018-05-25T19:29:18.045Z,16.70
2018-05-25T19:31:45.040Z,16.60
2018-05-25T19:34:12.049Z,16.50
2018-05-25T19:36:38.282Z,16.50
2018-05-25T19:39:04.561Z,16.40
2018-05-25T19:41:31.615Z,16.40
2018-05-25T19:43:58.629Z,16.30
2018-05-25T19:46:24.973Z,16.30
2018-05-25T19:48:51.244Z,16.20
2018-05-25T19:51:18.329Z,16.20
2018-05-25T19:53:44.567Z,16.20
2018-05-25T19:56:10.811Z,16.10
2018-05-25T19:58:37.078Z,16.10
2018-05-25T20:01:03.372Z,16.10
2018-05-25T20:03:29.976Z,16.10
2018-05-25T20:05:56.259Z,16.10
2018-05-25T20:08:22.537Z,16.10
2018-05-25T20:10:48.830Z,16.10
2018-05-25T20:13:15.142Z,16.10
2018-05-25T20:15:42.124Z,16.00
2018-05-25T20:18:08.403Z,16.00
2018-05-25T20:20:34.662Z,16.00
2018-05-25T20:23:01.725Z,16.00
2018-05-25T20:25:28.717Z,16.10
2018-05-25T20:27:55.039Z,16.00
2018-05-25T20:30:21.288Z,16.00
2018-05-25T20:32:47.579Z,16.00
2018-05-25T20:35:14.581Z,15.90
2018-05-25T20:37:40.922Z,15.90
2018-05-25T20:40:07.211Z,15.90
2018-05-25T20:42:34.204Z,15.80
2018-05-25T20:45:00.509Z,15.80
2018-05-25T20:47:26.792Z,15.70
2018-05-25T20:49:53.812Z,15.60
2018-05-25T20:52:20.046Z,15.60
2018-05-25T20:54:46.329Z,15.60
2018-05-25T20:57:12.599Z,15.50
2018-05-25T20:59:39.650Z,15.50
2018-05-25T21:02:06.631Z,15.40
2018-05-25T21:04:33.681Z,15.40
2018-05-25T21:07:00.625Z,15.40
2018-05-25T21:09:26.979Z,15.30
2018-05-25T21:11:54.019Z,15.40
2018-05-25T21:14:20.648Z,15.40
2018-05-25T21:16:47.744Z,15.40
2018-05-25T21:19:13.984Z,15.50
2018-05-25T21:21:40.255Z,15.50
2018-05-25T21:24:06.551Z,15.50
2018-05-25T21:26:32.839Z,15.50
2018-05-25T21:28:59.475Z,15.50
2018-05-25T21:31:26.431Z,15.50
2018-05-25T21:33:53.450Z,15.40
2018-05-25T21:36:19.694Z,15.40
2018-05-25T21:38:45.944Z,15.40
2018-05-25T21:41:12.214Z,15.40
2018-05-25T21:43:38.428Z,15.30
2018-05-25T21:46:05.040Z,15.30
2018-05-25T21:48:31.310Z,15.30
2018-05-25T21:50:58.329Z,15.30
2018-05-25T21:53:24.629Z,15.30
2018-05-25T21:55:51.261Z,15.20
2018-05-25T21:58:17.517Z,15.20
2018-05-25T22:00:43.805Z,15.10
2018-05-25T22:03:10.084Z,15.20
2018-05-25T22:05:36.371Z,15.10
2018-05-25T22:08:02.715Z,15.00
2018-05-25T22:10:28.930Z,15.00
2018-05-25T22:12:55.222Z,14.90
2018-05-25T22:15:21.495Z,14.90
2018-05-25T22:17:47.758Z,14.80
2018-05-25T22:20:14.027Z,15.50
2018-05-25T22:22:41.045Z,14.80
2018-05-25T22:25:08.081Z,14.80
2018-05-25T22:27:34.291Z,14.90
2018-05-25T22:30:00.573Z,14.90
2018-05-25T22:32:26.937Z,14.90
2018-05-25T22:34:53.163Z,14.80
2018-05-25T22:37:20.175Z,14.80
2018-05-25T22:39:46.409Z,14.80
2018-05-25T22:42:12.485Z,14.70
2018-05-25T22:44:51.700Z,14.70
2018-05-25T22:47:30.090Z,14.60
2018-05-25T22:50:08.515Z,14.60
2018-05-25T22:52:40.748Z,14.60
2018-05-25T22:55:11.990Z,14.50
2018-05-25T22:57:39.015Z,14.50
2018-05-25T23:00:06.030Z,14.50
2018-05-25T23:02:32.322Z,14.50
2018-05-25T23:04:58.528Z,14.50
2018-05-25T23:07:25.484Z,14.40
2018-05-25T23:09:52.474Z,14.40
2018-05-25T23:12:18.725Z,14.30
2018-05-25T23:14:46.095Z,14.30
2018-05-25T23:17:12.326Z,14.30
2018-05-25T23:19:39.308Z,14.30
2018-05-25T23:22:06.284Z,14.20
2018-05-25T23:24:33.272Z,14.20
2018-05-25T23:26:59.482Z,14.20
2018-05-25T23:29:25.742Z,14.20
2018-05-25T23:31:52.021Z,14.10
2018-05-25T23:34:18.240Z,14.10
2018-05-25T23:36:44.486Z,14.00
2018-05-25T23:39:10.735Z,14.00
2018-05-25T23:41:37.771Z,14.00
2018-05-25T23:44:04.031Z,14.00
2018-05-25T23:46:31.028Z,14.00
2018-05-25T23:48:57.248Z,13.90
2018-05-25T23:51:23.526Z,13.90
2018-05-25T23:53:49.775Z,13.90
2018-05-25T23:56:16.046Z,13.90
2018-05-25T23:58:42.676Z,13.90
